DAL44 KATL-KJFK
Flight info
| Callsign | DAL44 |
|---|---|
| Flight time | 1h 50m |
| Altitude | 39000 |
| Route | PHIIL3 HRTWL Q64 SAWED Q108 SIE CAMRN5 |
| Aircraft | B744/H-SDE3FGHIM1M2RWXY/LB1 |
Departure
| Time | 2026-05-04 19:14 |
|---|---|
| Airport | Hartsfield Jackson Atlanta International Airport (KATL) |
Arrival
| Time | 2026-05-04 21:04 |
|---|---|
| Airport | John F. Kennedy International Airport (KJFK) |
| Time | Latitude | Longitude | Altitude | Speed | Heading |
|---|---|---|---|---|---|
| 2026-05-04 19:14 | 33.46954 | -84.37012 | 7984 ft | 284 kts | 117° |
| 2026-05-04 19:14 | 33.46094 | -84.34884 | 8220 ft | 285 kts | 117° |
| 2026-05-04 19:14 | 33.45264 | -84.32709 | 8439 ft | 287 kts | 110° |
| 2026-05-04 19:15 | 33.44946 | -84.30357 | 8655 ft | 290 kts | 90° |
| 2026-05-04 19:15 | 33.45325 | -84.27971 | 8874 ft | 294 kts | 70° |
| 2026-05-04 19:15 | 33.46243 | -84.25790 | 9120 ft | 295 kts | 63° |
| 2026-05-04 19:15 | 33.47151 | -84.23592 | 9343 ft | 295 kts | 68° |
| 2026-05-04 19:16 | 33.47953 | -84.21333 | 9585 ft | 295 kts | 70° |
| 2026-05-04 19:16 | 33.48717 | -84.19027 | 9803 ft | 297 kts | 71° |
| 2026-05-04 19:16 | 33.49433 | -84.16721 | 10018 ft | 298 kts | 71° |
| 2026-05-04 19:16 | 33.50130 | -84.14368 | 10238 ft | 299 kts | 72° |
| 2026-05-04 19:17 | 33.50805 | -84.12009 | 10433 ft | 301 kts | 72° |
| 2026-05-04 19:17 | 33.51470 | -84.09606 | 10595 ft | 305 kts | 73° |
| 2026-05-04 19:17 | 33.52128 | -84.07176 | 10695 ft | 311 kts | 73° |
| 2026-05-04 19:17 | 33.52795 | -84.04681 | 10712 ft | 321 kts | 73° |
| 2026-05-04 19:18 | 33.53477 | -84.02086 | 10792 ft | 326 kts | 73° |
| 2026-05-04 19:18 | 33.54145 | -83.99500 | 10955 ft | 328 kts | 73° |
| 2026-05-04 19:18 | 33.54812 | -83.96872 | 11127 ft | 330 kts | 73° |
| 2026-05-04 19:18 | 33.55492 | -83.94211 | 11335 ft | 331 kts | 73° |
| 2026-05-04 19:19 | 33.56160 | -83.91582 | 11536 ft | 332 kts | 73° |
| 2026-05-04 19:19 | 33.56833 | -83.88936 | 11735 ft | 333 kts | 73° |
| 2026-05-04 19:19 | 33.57512 | -83.86259 | 11932 ft | 335 kts | 73° |
| 2026-05-04 19:19 | 33.58197 | -83.83569 | 12132 ft | 336 kts | 72° |
| 2026-05-04 19:20 | 33.59034 | -83.80961 | 12307 ft | 338 kts | 64° |
| 2026-05-04 19:20 | 33.60044 | -83.78401 | 12512 ft | 340 kts | 64° |
| 2026-05-04 19:20 | 33.61026 | -83.75815 | 12718 ft | 341 kts | 64° |
| 2026-05-04 19:20 | 33.62021 | -83.73221 | 12952 ft | 343 kts | 64° |
| 2026-05-04 19:21 | 33.63021 | -83.70596 | 13184 ft | 344 kts | 64° |
| 2026-05-04 19:21 | 33.64010 | -83.67999 | 13414 ft | 346 kts | 64° |
| 2026-05-04 19:21 | 33.65011 | -83.65356 | 13675 ft | 347 kts | 64° |
| 2026-05-04 19:21 | 33.65891 | -83.62635 | 13904 ft | 350 kts | 74° |
| 2026-05-04 19:22 | 33.66399 | -83.59792 | 14171 ft | 351 kts | 77° |
| 2026-05-04 19:22 | 33.66929 | -83.56902 | 14448 ft | 352 kts | 76° |
| 2026-05-04 19:22 | 33.67470 | -83.54010 | 14727 ft | 354 kts | 76° |
| 2026-05-04 19:22 | 33.68004 | -83.51136 | 15011 ft | 356 kts | 76° |
| 2026-05-04 19:23 | 33.68551 | -83.48212 | 15305 ft | 358 kts | 76° |
| 2026-05-04 19:23 | 33.69100 | -83.45269 | 15597 ft | 360 kts | 75° |
| 2026-05-04 19:23 | 33.69650 | -83.42319 | 15887 ft | 362 kts | 76° |
| 2026-05-04 19:23 | 33.70199 | -83.39380 | 16182 ft | 364 kts | 75° |
| 2026-05-04 19:24 | 33.70747 | -83.36423 | 16477 ft | 365 kts | 75° |
| 2026-05-04 19:24 | 33.71291 | -83.33498 | 16767 ft | 367 kts | 76° |
| 2026-05-04 19:24 | 33.71847 | -83.30506 | 17063 ft | 368 kts | 75° |
| 2026-05-04 19:24 | 33.72088 | -83.29206 | 17185 ft | 369 kts | 76° |
| 2026-05-04 19:25 | 33.72648 | -83.26190 | 17463 ft | 371 kts | 75° |
| 2026-05-04 19:25 | 33.73215 | -83.23130 | 17737 ft | 373 kts | 75° |
| 2026-05-04 19:25 | 33.73776 | -83.20094 | 18003 ft | 375 kts | 75° |
| 2026-05-04 19:25 | 33.74343 | -83.17011 | 18262 ft | 377 kts | 75° |
| 2026-05-04 19:26 | 33.75063 | -83.14000 | 18468 ft | 377 kts | 64° |
| 2026-05-04 19:26 | 33.76337 | -83.11278 | 18690 ft | 375 kts | 53° |
| 2026-05-04 19:26 | 33.77776 | -83.08641 | 18951 ft | 377 kts | 54° |
| 2026-05-04 19:26 | 33.79182 | -83.05932 | 19215 ft | 379 kts | 54° |
| 2026-05-04 19:27 | 33.80579 | -83.03256 | 19475 ft | 381 kts | 54° |
| 2026-05-04 19:27 | 33.80696 | -83.03030 | 19497 ft | 381 kts | 54° |
| 2026-05-04 19:27 | 33.82110 | -83.00310 | 19750 ft | 382 kts | 54° |
| 2026-05-04 19:27 | 33.83514 | -82.97603 | 20008 ft | 384 kts | 54° |
| 2026-05-04 19:28 | 33.84937 | -82.94846 | 20274 ft | 385 kts | 54° |
| 2026-05-04 19:28 | 33.86344 | -82.92119 | 20525 ft | 387 kts | 54° |
| 2026-05-04 19:28 | 33.87778 | -82.89344 | 20786 ft | 389 kts | 54° |
| 2026-05-04 19:28 | 33.89211 | -82.86566 | 21031 ft | 390 kts | 54° |
| 2026-05-04 19:29 | 33.90650 | -82.83772 | 21253 ft | 393 kts | 54° |
| 2026-05-04 19:29 | 33.92095 | -82.80988 | 21467 ft | 395 kts | 54° |
| 2026-05-04 19:29 | 33.93550 | -82.78159 | 21687 ft | 398 kts | 54° |
| 2026-05-04 19:29 | 33.95001 | -82.75333 | 21907 ft | 400 kts | 54° |
| 2026-05-04 19:30 | 33.96408 | -82.72577 | 22129 ft | 401 kts | 54° |
| 2026-05-04 19:30 | 33.97823 | -82.69779 | 22370 ft | 402 kts | 55° |
| 2026-05-04 19:30 | 33.99262 | -82.66898 | 22617 ft | 403 kts | 54° |
| 2026-05-04 19:31 | 34.00731 | -82.64042 | 22859 ft | 404 kts | 54° |
| 2026-05-04 19:31 | 34.02217 | -82.61123 | 23095 ft | 406 kts | 54° |
| 2026-05-04 19:31 | 34.03680 | -82.58237 | 23302 ft | 408 kts | 54° |
| 2026-05-04 19:31 | 34.05178 | -82.55286 | 23496 ft | 410 kts | 54° |
| 2026-05-04 19:32 | 34.06677 | -82.52321 | 23692 ft | 413 kts | 54° |
| 2026-05-04 19:32 | 34.08177 | -82.49365 | 23894 ft | 415 kts | 54° |
| 2026-05-04 19:32 | 34.09669 | -82.46404 | 24114 ft | 416 kts | 54° |
| 2026-05-04 19:32 | 34.11179 | -82.43408 | 24339 ft | 417 kts | 54° |
| 2026-05-04 19:33 | 34.12702 | -82.40381 | 24567 ft | 419 kts | 54° |
| 2026-05-04 19:33 | 34.14216 | -82.37374 | 24792 ft | 420 kts | 54° |
| 2026-05-04 19:33 | 34.15741 | -82.34333 | 25014 ft | 421 kts | 54° |
| 2026-05-04 19:33 | 34.17269 | -82.31303 | 25211 ft | 423 kts | 54° |
| 2026-05-04 19:34 | 34.18820 | -82.28238 | 25405 ft | 424 kts | 54° |
| 2026-05-04 19:34 | 34.19885 | -82.26122 | 25541 ft | 425 kts | 54° |
| 2026-05-04 19:34 | 34.21112 | -82.23673 | 25700 ft | 426 kts | 54° |
| 2026-05-04 19:34 | 34.22670 | -82.20550 | 25899 ft | 428 kts | 54° |
| 2026-05-04 19:35 | 34.24178 | -82.17481 | 26093 ft | 429 kts | 55° |
| 2026-05-04 19:35 | 34.25702 | -82.14333 | 26284 ft | 430 kts | 54° |
| 2026-05-04 19:35 | 34.27281 | -82.11270 | 26457 ft | 431 kts | 53° |
| 2026-05-04 19:35 | 34.28861 | -82.08170 | 26624 ft | 434 kts | 54° |
| 2026-05-04 19:36 | 34.30122 | -82.05683 | 26751 ft | 434 kts | 54° |
| 2026-05-04 19:36 | 34.31720 | -82.02524 | 26930 ft | 436 kts | 54° |
| 2026-05-04 19:36 | 34.33312 | -81.99347 | 27112 ft | 437 kts | 54° |
| 2026-05-04 19:36 | 34.34909 | -81.96168 | 27302 ft | 438 kts | 54° |
| 2026-05-04 19:37 | 34.36489 | -81.93023 | 27481 ft | 439 kts | 54° |
| 2026-05-04 19:37 | 34.38101 | -81.89816 | 27663 ft | 441 kts | 54° |
| 2026-05-04 19:37 | 34.39688 | -81.86641 | 27845 ft | 442 kts | 54° |
| 2026-05-04 19:37 | 34.41277 | -81.83461 | 28032 ft | 442 kts | 54° |
| 2026-05-04 19:38 | 34.42896 | -81.80228 | 28218 ft | 443 kts | 54° |
| 2026-05-04 19:38 | 34.44505 | -81.77007 | 28399 ft | 445 kts | 54° |
| 2026-05-04 19:38 | 34.46098 | -81.73814 | 28583 ft | 446 kts | 54° |
| 2026-05-04 19:38 | 34.47720 | -81.70559 | 28736 ft | 447 kts | 54° |
| 2026-05-04 19:39 | 34.49345 | -81.67303 | 28883 ft | 450 kts | 54° |
| 2026-05-04 19:39 | 34.50958 | -81.64056 | 29043 ft | 452 kts | 54° |
| 2026-05-04 19:39 | 34.52588 | -81.60777 | 29209 ft | 454 kts | 54° |
| 2026-05-04 19:39 | 34.54237 | -81.57458 | 29378 ft | 455 kts | 54° |
| 2026-05-04 19:40 | 34.55864 | -81.54177 | 29551 ft | 457 kts | 54° |
| 2026-05-04 19:40 | 34.57514 | -81.50841 | 29749 ft | 458 kts | 54° |
| 2026-05-04 19:40 | 34.59168 | -81.47497 | 29936 ft | 459 kts | 54° |
| 2026-05-04 19:40 | 34.60809 | -81.44190 | 30127 ft | 460 kts | 54° |
| 2026-05-04 19:41 | 34.62473 | -81.40822 | 30336 ft | 461 kts | 54° |
| 2026-05-04 19:41 | 34.64116 | -81.37498 | 30537 ft | 463 kts | 54° |
| 2026-05-04 19:41 | 34.65781 | -81.34118 | 30737 ft | 464 kts | 55° |
| 2026-05-04 19:41 | 34.67457 | -81.30728 | 30929 ft | 465 kts | 55° |
| 2026-05-04 19:42 | 34.69119 | -81.27338 | 31121 ft | 466 kts | 55° |
| 2026-05-04 19:42 | 34.70797 | -81.23938 | 31315 ft | 467 kts | 55° |
| 2026-05-04 19:42 | 34.72459 | -81.20558 | 31508 ft | 468 kts | 55° |
| 2026-05-04 19:42 | 34.74134 | -81.17172 | 31710 ft | 469 kts | 55° |
| 2026-05-04 19:43 | 34.75825 | -81.13727 | 31908 ft | 470 kts | 56° |
| 2026-05-04 19:43 | 34.77482 | -81.10312 | 32088 ft | 471 kts | 56° |
| 2026-05-04 19:43 | 34.79156 | -81.06820 | 32242 ft | 474 kts | 56° |
| 2026-05-04 19:43 | 34.80661 | -81.03181 | 32373 ft | 478 kts | 63° |
| 2026-05-04 19:44 | 34.82001 | -80.99474 | 32541 ft | 479 kts | 62° |
| 2026-05-04 19:44 | 34.83381 | -80.95805 | 32714 ft | 481 kts | 62° |
| 2026-05-04 19:44 | 34.84767 | -80.92055 | 32894 ft | 482 kts | 63° |
| 2026-05-04 19:44 | 34.86150 | -80.88313 | 33063 ft | 483 kts | 63° |
| 2026-05-04 19:45 | 34.87533 | -80.84553 | 33247 ft | 485 kts | 63° |
| 2026-05-04 19:45 | 34.88918 | -80.80796 | 33427 ft | 486 kts | 63° |
| 2026-05-04 19:45 | 34.90303 | -80.77032 | 33619 ft | 487 kts | 63° |
| 2026-05-04 19:45 | 34.91645 | -80.73376 | 33787 ft | 488 kts | 63° |
| 2026-05-04 19:46 | 34.92980 | -80.69729 | 33958 ft | 489 kts | 63° |
| 2026-05-04 19:46 | 34.94371 | -80.65935 | 34121 ft | 491 kts | 63° |
| 2026-05-04 19:46 | 34.95770 | -80.62099 | 34285 ft | 492 kts | 63° |
| 2026-05-04 19:46 | 34.97115 | -80.58421 | 34450 ft | 494 kts | 63° |
| 2026-05-04 19:47 | 34.98521 | -80.54567 | 34596 ft | 495 kts | 63° |
| 2026-05-04 19:47 | 34.99853 | -80.50908 | 34733 ft | 497 kts | 63° |
| 2026-05-04 19:47 | 35.01273 | -80.46993 | 34875 ft | 499 kts | 63° |
| 2026-05-04 19:47 | 35.02675 | -80.43138 | 35021 ft | 500 kts | 63° |
| 2026-05-04 19:48 | 35.04102 | -80.39211 | 35165 ft | 502 kts | 63° |
| 2026-05-04 19:48 | 35.05504 | -80.35342 | 35315 ft | 504 kts | 63° |
| 2026-05-04 19:48 | 35.06934 | -80.31390 | 35451 ft | 505 kts | 63° |
| 2026-05-04 19:48 | 35.08353 | -80.27469 | 35582 ft | 507 kts | 64° |
| 2026-05-04 19:49 | 35.09779 | -80.23511 | 35715 ft | 508 kts | 64° |
| 2026-05-04 19:49 | 35.11219 | -80.19524 | 35846 ft | 509 kts | 63° |
| 2026-05-04 19:49 | 35.12558 | -80.15813 | 35976 ft | 510 kts | 63° |
| 2026-05-04 19:49 | 35.13979 | -80.11893 | 36095 ft | 511 kts | 64° |
| 2026-05-04 19:50 | 35.15430 | -80.07873 | 36222 ft | 513 kts | 64° |
| 2026-05-04 19:50 | 35.16865 | -80.03844 | 36349 ft | 514 kts | 64° |
| 2026-05-04 19:50 | 35.18266 | -79.99845 | 36496 ft | 515 kts | 64° |
| 2026-05-04 19:50 | 35.19700 | -79.95785 | 36654 ft | 516 kts | 63° |
| 2026-05-04 19:51 | 35.21179 | -79.91766 | 36801 ft | 518 kts | 63° |
| 2026-05-04 19:51 | 35.22621 | -79.87723 | 36982 ft | 519 kts | 63° |
| 2026-05-04 19:51 | 35.24090 | -79.83646 | 37170 ft | 520 kts | 63° |
| 2026-05-04 19:51 | 35.25549 | -79.79565 | 37374 ft | 521 kts | 63° |
| 2026-05-04 19:52 | 35.27011 | -79.75484 | 37548 ft | 522 kts | 63° |
| 2026-05-04 19:52 | 35.28467 | -79.71394 | 37751 ft | 523 kts | 64° |
| 2026-05-04 19:52 | 35.29914 | -79.67334 | 37920 ft | 525 kts | 63° |
| 2026-05-04 19:52 | 35.31381 | -79.63210 | 38144 ft | 526 kts | 64° |
| 2026-05-04 19:53 | 35.32851 | -79.59063 | 38325 ft | 527 kts | 64° |
| 2026-05-04 19:53 | 35.34318 | -79.54934 | 38494 ft | 528 kts | 64° |
| 2026-05-04 19:53 | 35.35781 | -79.50782 | 38685 ft | 528 kts | 64° |
| 2026-05-04 19:53 | 35.37239 | -79.46644 | 38868 ft | 526 kts | 64° |
| 2026-05-04 19:54 | 35.38695 | -79.42542 | 38963 ft | 522 kts | 63° |
| 2026-05-04 19:54 | 35.41530 | -79.34480 | 38989 ft | 517 kts | 64° |
| 2026-05-04 19:55 | 35.44364 | -79.26427 | 38984 ft | 515 kts | 64° |
| 2026-05-04 19:55 | 35.47216 | -79.18282 | 39010 ft | 517 kts | 64° |
| 2026-05-04 19:56 | 35.50058 | -79.10134 | 39029 ft | 519 kts | 64° |
| 2026-05-04 19:56 | 35.52925 | -79.01919 | 39009 ft | 518 kts | 64° |
| 2026-05-04 19:57 | 35.55757 | -78.93797 | 39001 ft | 517 kts | 64° |
| 2026-05-04 19:57 | 35.58592 | -78.85646 | 39005 ft | 517 kts | 64° |
| 2026-05-04 19:58 | 35.61360 | -78.77426 | 39005 ft | 518 kts | 64° |
| 2026-05-04 19:58 | 35.64238 | -78.69209 | 39015 ft | 519 kts | 64° |
| 2026-05-04 19:59 | 35.67061 | -78.61003 | 39013 ft | 520 kts | 64° |
| 2026-05-04 19:59 | 35.69910 | -78.52747 | 39013 ft | 521 kts | 64° |
| 2026-05-04 20:00 | 35.72693 | -78.44510 | 39014 ft | 522 kts | 65° |
| 2026-05-04 20:00 | 35.75523 | -78.36204 | 39011 ft | 521 kts | 64° |
| 2026-05-04 20:01 | 35.78324 | -78.28005 | 38991 ft | 521 kts | 65° |
| 2026-05-04 20:01 | 35.81144 | -78.19708 | 39012 ft | 521 kts | 65° |
| 2026-05-04 20:02 | 35.83936 | -78.11455 | 39004 ft | 521 kts | 65° |
| 2026-05-04 20:02 | 35.86728 | -78.03176 | 39006 ft | 520 kts | 65° |
| 2026-05-04 20:03 | 35.89496 | -77.94971 | 39002 ft | 520 kts | 65° |
| 2026-05-04 20:03 | 35.92274 | -77.86714 | 38992 ft | 520 kts | 65° |
| 2026-05-04 20:04 | 35.95057 | -77.78426 | 39004 ft | 521 kts | 65° |
| 2026-05-04 20:04 | 35.96109 | -77.75244 | 39003 ft | 522 kts | 65° |
| 2026-05-04 20:05 | 35.99568 | -77.67418 | 38969 ft | 512 kts | 45° |
| 2026-05-04 20:05 | 36.04526 | -77.61188 | 39020 ft | 510 kts | 41° |
| 2026-05-04 20:06 | 36.09425 | -77.54713 | 39012 ft | 514 kts | 41° |
| 2026-05-04 20:06 | 36.14305 | -77.48189 | 39003 ft | 515 kts | 42° |
| 2026-05-04 20:07 | 36.19183 | -77.41625 | 38973 ft | 512 kts | 42° |
| 2026-05-04 20:07 | 36.24014 | -77.35155 | 38971 ft | 509 kts | 42° |
| 2026-05-04 20:08 | 36.28827 | -77.28619 | 38971 ft | 511 kts | 44° |
| 2026-05-04 20:08 | 36.33008 | -77.23049 | 38960 ft | 508 kts | 36° |
| 2026-05-04 20:09 | 36.38324 | -77.17333 | 39001 ft | 509 kts | 37° |
| 2026-05-04 20:09 | 36.43632 | -77.11415 | 39005 ft | 511 kts | 37° |
| 2026-05-04 20:10 | 36.48918 | -77.05508 | 38982 ft | 510 kts | 37° |
| 2026-05-04 20:10 | 36.54224 | -76.99532 | 38979 ft | 510 kts | 37° |
| 2026-05-04 20:11 | 36.59500 | -76.93596 | 38974 ft | 509 kts | 37° |
| 2026-05-04 20:11 | 36.64581 | -76.87875 | 38972 ft | 508 kts | 37° |
| 2026-05-04 20:12 | 36.69850 | -76.81911 | 38981 ft | 509 kts | 37° |
| 2026-05-04 20:12 | 36.74722 | -76.76398 | 38979 ft | 510 kts | 37° |
| 2026-05-04 20:13 | 36.79781 | -76.70651 | 38976 ft | 509 kts | 37° |
| 2026-05-04 20:13 | 36.85059 | -76.64661 | 38971 ft | 510 kts | 37° |
| 2026-05-04 20:14 | 36.88882 | -76.60297 | 38958 ft | 509 kts | 37° |
| 2026-05-04 20:14 | 36.94141 | -76.54305 | 38965 ft | 507 kts | 37° |
| 2026-05-04 20:15 | 36.99350 | -76.48350 | 38966 ft | 506 kts | 37° |
| 2026-05-04 20:15 | 37.03947 | -76.43082 | 38966 ft | 507 kts | 37° |
| 2026-05-04 20:16 | 37.09185 | -76.37083 | 38965 ft | 508 kts | 37° |
| 2026-05-04 20:16 | 37.14417 | -76.31069 | 38965 ft | 507 kts | 38° |
| 2026-05-04 20:17 | 37.19623 | -76.25062 | 38955 ft | 505 kts | 37° |
| 2026-05-04 20:17 | 37.24771 | -76.19125 | 38964 ft | 503 kts | 37° |
| 2026-05-04 20:18 | 37.29937 | -76.13159 | 38971 ft | 505 kts | 38° |
| 2026-05-04 20:18 | 37.35142 | -76.07131 | 38957 ft | 506 kts | 37° |
| 2026-05-04 20:19 | 37.40300 | -76.01133 | 38953 ft | 505 kts | 37° |
| 2026-05-04 20:19 | 37.45474 | -75.95153 | 38950 ft | 504 kts | 37° |
| 2026-05-04 20:20 | 37.50636 | -75.89101 | 38945 ft | 505 kts | 38° |
| 2026-05-04 20:20 | 37.56050 | -75.83573 | 38938 ft | 492 kts | 24° |
| 2026-05-04 20:21 | 37.61997 | -75.79357 | 38974 ft | 493 kts | 25° |
| 2026-05-04 20:21 | 37.70918 | -75.72716 | 38984 ft | 497 kts | 25° |
| 2026-05-04 20:22 | 37.76900 | -75.68231 | 38969 ft | 496 kts | 25° |
| 2026-05-04 20:22 | 37.82791 | -75.63759 | 38967 ft | 496 kts | 26° |
| 2026-05-04 20:23 | 37.88594 | -75.58869 | 38972 ft | 497 kts | 29° |
| 2026-05-04 20:23 | 37.93367 | -75.54746 | 38964 ft | 495 kts | 29° |
| 2026-05-04 20:24 | 37.99059 | -75.49815 | 38985 ft | 495 kts | 29° |
| 2026-05-04 20:24 | 38.04748 | -75.44795 | 38971 ft | 496 kts | 29° |
| 2026-05-04 20:25 | 38.10553 | -75.40039 | 38980 ft | 495 kts | 27° |
| 2026-05-04 20:25 | 38.16375 | -75.35314 | 38997 ft | 494 kts | 27° |
| 2026-05-04 20:26 | 38.22182 | -75.30572 | 38963 ft | 494 kts | 28° |
| 2026-05-04 20:26 | 38.25200 | -75.28441 | 38935 ft | 486 kts | 17° |
| 2026-05-04 20:26 | 38.28367 | -75.27183 | 38955 ft | 475 kts | 5° |
| 2026-05-04 20:27 | 38.34829 | -75.26014 | 38707 ft | 459 kts | 4° |
| 2026-05-04 20:27 | 38.37939 | -75.25358 | 38301 ft | 451 kts | 4° |
| 2026-05-04 20:27 | 38.41007 | -75.24751 | 37769 ft | 442 kts | 4° |
| 2026-05-04 20:28 | 38.44048 | -75.24135 | 37204 ft | 444 kts | 4° |
| 2026-05-04 20:28 | 38.47179 | -75.23491 | 37019 ft | 452 kts | 4° |
| 2026-05-04 20:28 | 38.53466 | -75.22173 | 36986 ft | 466 kts | 4° |
| 2026-05-04 20:29 | 38.59964 | -75.20805 | 37007 ft | 478 kts | 5° |
| 2026-05-04 20:29 | 38.66530 | -75.19425 | 36979 ft | 475 kts | 5° |
| 2026-05-04 20:30 | 38.72810 | -75.16467 | 36701 ft | 490 kts | 28° |
| 2026-05-04 20:30 | 38.75542 | -75.13844 | 36275 ft | 493 kts | 35° |
| 2026-05-04 20:30 | 38.76427 | -75.12901 | 36124 ft | 492 kts | 35° |
| 2026-05-04 20:31 | 38.80218 | -75.09087 | 35501 ft | 481 kts | 33° |
| 2026-05-04 20:31 | 38.82862 | -75.06460 | 35104 ft | 475 kts | 33° |
| 2026-05-04 20:31 | 38.85497 | -75.03847 | 34606 ft | 475 kts | 33° |
| 2026-05-04 20:31 | 38.88122 | -75.01249 | 34027 ft | 477 kts | 33° |
| 2026-05-04 20:32 | 38.90713 | -74.98681 | 33473 ft | 474 kts | 33° |
| 2026-05-04 20:32 | 38.93343 | -74.96090 | 32918 ft | 470 kts | 33° |
| 2026-05-04 20:32 | 38.95961 | -74.93502 | 32372 ft | 472 kts | 33° |
| 2026-05-04 20:32 | 38.98558 | -74.90926 | 31849 ft | 472 kts | 33° |
| 2026-05-04 20:33 | 39.01177 | -74.88339 | 31336 ft | 471 kts | 32° |
| 2026-05-04 20:33 | 39.03781 | -74.85767 | 30823 ft | 471 kts | 33° |
| 2026-05-04 20:33 | 39.06310 | -74.83242 | 30253 ft | 455 kts | 32° |
| 2026-05-04 20:33 | 39.08802 | -74.80781 | 29647 ft | 451 kts | 32° |
| 2026-05-04 20:34 | 39.11253 | -74.78251 | 29027 ft | 444 kts | 35° |
| 2026-05-04 20:34 | 39.13610 | -74.75664 | 28422 ft | 444 kts | 34° |
| 2026-05-04 20:34 | 39.15958 | -74.73164 | 27828 ft | 435 kts | 34° |
| 2026-05-04 20:34 | 39.18294 | -74.70619 | 27236 ft | 432 kts | 34° |
| 2026-05-04 20:35 | 39.20583 | -74.68158 | 26655 ft | 428 kts | 34° |
| 2026-05-04 20:35 | 39.22860 | -74.65685 | 26076 ft | 425 kts | 34° |
| 2026-05-04 20:35 | 39.25127 | -74.63241 | 25499 ft | 421 kts | 34° |
| 2026-05-04 20:35 | 39.27361 | -74.60817 | 24936 ft | 417 kts | 34° |
| 2026-05-04 20:36 | 39.29577 | -74.58417 | 24374 ft | 416 kts | 34° |
| 2026-05-04 20:36 | 39.31797 | -74.56010 | 23819 ft | 411 kts | 34° |
| 2026-05-04 20:36 | 39.33970 | -74.53662 | 23287 ft | 409 kts | 34° |
| 2026-05-04 20:36 | 39.36149 | -74.51284 | 22773 ft | 405 kts | 34° |
| 2026-05-04 20:37 | 39.38287 | -74.48968 | 22294 ft | 403 kts | 34° |
| 2026-05-04 20:37 | 39.40451 | -74.46586 | 21839 ft | 403 kts | 35° |
| 2026-05-04 20:37 | 39.42582 | -74.44242 | 21407 ft | 400 kts | 34° |
| 2026-05-04 20:37 | 39.44708 | -74.41953 | 21002 ft | 400 kts | 35° |
| 2026-05-04 20:38 | 39.46840 | -74.39623 | 20600 ft | 398 kts | 35° |
| 2026-05-04 20:38 | 39.48942 | -74.37335 | 20207 ft | 394 kts | 35° |
| 2026-05-04 20:38 | 39.51055 | -74.35044 | 19834 ft | 392 kts | 35° |
| 2026-05-04 20:38 | 39.53153 | -74.32748 | 19458 ft | 393 kts | 36° |
| 2026-05-04 20:39 | 39.55209 | -74.30487 | 19130 ft | 391 kts | 36° |
| 2026-05-04 20:39 | 39.57290 | -74.28191 | 18990 ft | 388 kts | 37° |
| 2026-05-04 20:39 | 39.59336 | -74.25897 | 18885 ft | 387 kts | 36° |
| 2026-05-04 20:39 | 39.61413 | -74.23641 | 18873 ft | 388 kts | 36° |
| 2026-05-04 20:40 | 39.63484 | -74.21375 | 18909 ft | 390 kts | 36° |
| 2026-05-04 20:40 | 39.65551 | -74.19102 | 18945 ft | 391 kts | 36° |
| 2026-05-04 20:40 | 39.67628 | -74.16803 | 18917 ft | 393 kts | 36° |
| 2026-05-04 20:40 | 39.69695 | -74.14520 | 18752 ft | 387 kts | 36° |
| 2026-05-04 20:41 | 39.71755 | -74.12264 | 18457 ft | 384 kts | 36° |
| 2026-05-04 20:41 | 39.73760 | -74.10059 | 18062 ft | 378 kts | 36° |
| 2026-05-04 20:41 | 39.75759 | -74.07868 | 17652 ft | 374 kts | 36° |
| 2026-05-04 20:41 | 39.77734 | -74.05697 | 17271 ft | 372 kts | 36° |
| 2026-05-04 20:42 | 39.79698 | -74.03518 | 16876 ft | 369 kts | 36° |
| 2026-05-04 20:42 | 39.81667 | -74.01336 | 16473 ft | 368 kts | 36° |
| 2026-05-04 20:42 | 39.83591 | -73.99180 | 16066 ft | 365 kts | 35° |
| 2026-05-04 20:42 | 39.85672 | -73.97388 | 15637 ft | 357 kts | 23° |
| 2026-05-04 20:43 | 39.87866 | -73.95916 | 15245 ft | 355 kts | 23° |
| 2026-05-04 20:43 | 39.90024 | -73.94388 | 14864 ft | 353 kts | 23° |
| 2026-05-04 20:43 | 39.92205 | -73.92858 | 14459 ft | 353 kts | 23° |
| 2026-05-04 20:43 | 39.94347 | -73.91348 | 14064 ft | 352 kts | 23° |
| 2026-05-04 20:44 | 39.96481 | -73.89846 | 13668 ft | 351 kts | 22° |
| 2026-05-04 20:44 | 39.98638 | -73.88317 | 13265 ft | 348 kts | 23° |
| 2026-05-04 20:44 | 40.00747 | -73.86822 | 12858 ft | 344 kts | 23° |
| 2026-05-04 20:44 | 40.02752 | -73.85175 | 12459 ft | 346 kts | 32° |
| 2026-05-04 20:45 | 40.04652 | -73.83246 | 12133 ft | 345 kts | 32° |
| 2026-05-04 20:45 | 40.06558 | -73.81362 | 11907 ft | 343 kts | 32° |
| 2026-05-04 20:45 | 40.08444 | -73.79470 | 11751 ft | 341 kts | 33° |
| 2026-05-04 20:45 | 40.10333 | -73.77577 | 11597 ft | 341 kts | 33° |
| 2026-05-04 20:46 | 40.12200 | -73.75697 | 11471 ft | 342 kts | 33° |
| 2026-05-04 20:46 | 40.14109 | -73.73758 | 11482 ft | 343 kts | 33° |
| 2026-05-04 20:46 | 40.15988 | -73.71852 | 11550 ft | 341 kts | 32° |
| 2026-05-04 20:46 | 40.17882 | -73.69980 | 11481 ft | 333 kts | 32° |
| 2026-05-04 20:47 | 40.19688 | -73.68167 | 11316 ft | 322 kts | 32° |
| 2026-05-04 20:47 | 40.21458 | -73.66402 | 11087 ft | 307 kts | 32° |
| 2026-05-04 20:47 | 40.23102 | -73.64755 | 10843 ft | 293 kts | 32° |
| 2026-05-04 20:47 | 40.24692 | -73.63161 | 10583 ft | 277 kts | 32° |
| 2026-05-04 20:48 | 40.26085 | -73.61764 | 10340 ft | 281 kts | 32° |
| 2026-05-04 20:48 | 40.27217 | -73.60646 | 10269 ft | 305 kts | 32° |
| 2026-05-04 20:48 | 40.28944 | -73.58903 | 10248 ft | 320 kts | 33° |
| 2026-05-04 20:48 | 40.30695 | -73.57117 | 10191 ft | 316 kts | 33° |
| 2026-05-04 20:49 | 40.32484 | -73.55466 | 10067 ft | 308 kts | 22° |
| 2026-05-04 20:49 | 40.34471 | -73.54580 | 9973 ft | 297 kts | 6° |
| 2026-05-04 20:49 | 40.36514 | -73.54124 | 9981 ft | 297 kts | 5° |
| 2026-05-04 20:49 | 40.38544 | -73.53615 | 9998 ft | 299 kts | 6° |
| 2026-05-04 20:50 | 40.40595 | -73.53110 | 9985 ft | 299 kts | 5° |
| 2026-05-04 20:50 | 40.42627 | -73.52605 | 9898 ft | 293 kts | 6° |
| 2026-05-04 20:50 | 40.44602 | -73.52115 | 9741 ft | 282 kts | 5° |
| 2026-05-04 20:50 | 40.46486 | -73.51650 | 9547 ft | 268 kts | 5° |
| 2026-05-04 20:51 | 40.48293 | -73.51205 | 9252 ft | 255 kts | 4° |
| 2026-05-04 20:51 | 40.50011 | -73.50784 | 9013 ft | 242 kts | 4° |
| 2026-05-04 20:51 | 40.51603 | -73.50394 | 8791 ft | 228 kts | 4° |
| 2026-05-04 20:51 | 40.53167 | -73.50013 | 8599 ft | 234 kts | 4° |
| 2026-05-04 20:52 | 40.54899 | -73.49607 | 8618 ft | 266 kts | 5° |
| 2026-05-04 20:52 | 40.56786 | -73.49149 | 8573 ft | 282 kts | 6° |
| 2026-05-04 20:52 | 40.58716 | -73.48676 | 8434 ft | 279 kts | 5° |
| 2026-05-04 20:52 | 40.60543 | -73.48222 | 8244 ft | 271 kts | 5° |
| 2026-05-04 20:53 | 40.62391 | -73.47769 | 7949 ft | 263 kts | 5° |
| 2026-05-04 20:53 | 40.64148 | -73.47333 | 7721 ft | 248 kts | 5° |
| 2026-05-04 20:53 | 40.65767 | -73.46935 | 7568 ft | 229 kts | 5° |
| 2026-05-04 20:53 | 40.67289 | -73.46556 | 7489 ft | 205 kts | 5° |
| 2026-05-04 20:54 | 40.68656 | -73.46143 | 7315 ft | 211 kts | 15° |
| 2026-05-04 20:54 | 40.70045 | -73.45285 | 7174 ft | 224 kts | 21° |
| 2026-05-04 20:54 | 40.71490 | -73.44359 | 6890 ft | 230 kts | 20° |
| 2026-05-04 20:54 | 40.72935 | -73.43439 | 6561 ft | 226 kts | 20° |
| 2026-05-04 20:55 | 40.74321 | -73.42549 | 6248 ft | 217 kts | 20° |
| 2026-05-04 20:55 | 40.75678 | -73.41801 | 5918 ft | 204 kts | 6° |
| 2026-05-04 20:55 | 40.76992 | -73.41836 | 5673 ft | 174 kts | 336° |
| 2026-05-04 20:55 | 40.77935 | -73.42616 | 5398 ft | 153 kts | 303° |
| 2026-05-04 20:56 | 40.78465 | -73.43805 | 5260 ft | 151 kts | 292° |
| 2026-05-04 20:56 | 40.78993 | -73.45057 | 5177 ft | 160 kts | 295° |
| 2026-05-04 20:56 | 40.79555 | -73.46370 | 5031 ft | 167 kts | 294° |
| 2026-05-04 20:56 | 40.80140 | -73.47752 | 4822 ft | 173 kts | 294° |
| 2026-05-04 20:57 | 40.80726 | -73.49136 | 4609 ft | 174 kts | 294° |
| 2026-05-04 20:57 | 40.81305 | -73.50519 | 4395 ft | 174 kts | 294° |
| 2026-05-04 20:57 | 40.81798 | -73.51983 | 4163 ft | 170 kts | 278° |
| 2026-05-04 20:57 | 40.81713 | -73.53492 | 4051 ft | 164 kts | 254° |
| 2026-05-04 20:58 | 40.81406 | -73.54962 | 3997 ft | 167 kts | 255° |
| 2026-05-04 20:58 | 40.81123 | -73.56466 | 3902 ft | 169 kts | 255° |
| 2026-05-04 20:58 | 40.80823 | -73.57970 | 3775 ft | 168 kts | 254° |
| 2026-05-04 20:58 | 40.80523 | -73.59486 | 3631 ft | 167 kts | 252° |
| 2026-05-04 20:59 | 40.79983 | -73.60852 | 3486 ft | 164 kts | 239° |
| 2026-05-04 20:59 | 40.79427 | -73.62120 | 3366 ft | 158 kts | 240° |
| 2026-05-04 20:59 | 40.78825 | -73.63309 | 3139 ft | 153 kts | 234° |
| 2026-05-04 20:59 | 40.78118 | -73.64342 | 2909 ft | 149 kts | 225° |
| 2026-05-04 21:00 | 40.77327 | -73.65197 | 2704 ft | 143 kts | 220° |
| 2026-05-04 21:00 | 40.76509 | -73.65974 | 2343 ft | 145 kts | 217° |
| 2026-05-04 21:00 | 40.75692 | -73.66698 | 2022 ft | 139 kts | 215° |
| 2026-05-04 21:00 | 40.74895 | -73.67349 | 1884 ft | 130 kts | 214° |
| 2026-05-04 21:01 | 40.74106 | -73.67989 | 1845 ft | 137 kts | 214° |
| 2026-05-04 21:01 | 40.73255 | -73.68671 | 1790 ft | 147 kts | 214° |
| 2026-05-04 21:01 | 40.72349 | -73.69360 | 1637 ft | 148 kts | 212° |
| 2026-05-04 21:01 | 40.71517 | -73.70041 | 1420 ft | 142 kts | 213° |
| 2026-05-04 21:02 | 40.70670 | -73.70709 | 1238 ft | 139 kts | 211° |
| 2026-05-04 21:02 | 40.69846 | -73.71338 | 1058 ft | 134 kts | 211° |
| 2026-05-04 21:02 | 40.69046 | -73.71967 | 891 ft | 133 kts | 211° |
| 2026-05-04 21:02 | 40.68460 | -73.72433 | 772 ft | 135 kts | 210° |
| 2026-05-04 21:03 | 40.67652 | -73.73058 | 641 ft | 135 kts | 210° |
| 2026-05-04 21:03 | 40.66851 | -73.73666 | 539 ft | 132 kts | 210° |
| 2026-05-04 21:03 | 40.66051 | -73.74292 | 378 ft | 133 kts | 208° |
| 2026-05-04 21:03 | 40.65266 | -73.74907 | 241 ft | 131 kts | 208° |
| 2026-05-04 21:04 | 40.64478 | -73.75525 | 62 ft | 131 kts | 207° |
| 2026-05-04 21:04 | 40.63752 | -73.76090 | 22 ft | 101 kts | 210° |
| 2026-05-04 21:04 | 40.63213 | -73.76508 | 20 ft | 75 kts | 210° |
| 2026-05-04 21:04 | 40.62894 | -73.76759 | 19 ft | 39 kts | 209° |
| 2026-05-04 21:05 | 40.62687 | -73.76917 | 18 ft | 30 kts | 208° |
| 2026-05-04 21:05 | 40.62579 | -73.77106 | 18 ft | 23 kts | 265° |
| 2026-05-04 21:05 | 40.62637 | -73.77235 | 18 ft | 15 kts | 340° |
| 2026-05-04 21:05 | 40.62730 | -73.77250 | 18 ft | 11 kts | 18° |
| 2026-05-04 21:06 | 40.62800 | -73.77202 | 18 ft | 11 kts | 30° |
| 2026-05-04 21:06 | 40.62872 | -73.77146 | 18 ft | 12 kts | 29° |